Time;durP1;ratioP1;P1;durP2;ratioP2;P2;SDS_P1;SDS_P2;PMS_P1;PMS_P2;Temp;Humidity;BMP_temperature;BMP_pressure;BME280_temperature;BME280_humidity;BME280_pressure;Samples;Min_cycle;Max_cycle;Signal;HPM_P1;HPM_P2
2020/12/05 05:29:46;;;;;;;27.40;16.60;;;2.40;97.60;;;;;;6215201;23;20054;-79
2020/12/05 05:32:30;;;;;;;29.02;16.33;;;2.40;97.50;;;;;;6206220;23;20052;-80
2020/12/05 05:35:14;;;;;;;28.85;16.92;;;2.50;97.60;;;;;;6145887;23;20009;-81
2020/12/05 05:38:19;;;;;;;25.95;14.55;;;2.50;97.60;;;;;;6133811;23;20467;-82
2020/12/05 05:41:29;;;;;;;23.13;13.90;;;2.50;97.60;;;;;;6145107;23;20008;-84
2020/12/05 05:44:37;;;;;;;28.42;15.50;;;2.50;98.00;;;;;;6167504;23;20152;-83
2020/12/05 05:47:04;;;;;;;26.85;15.20;;;2.50;97.90;;;;;;6140126;23;20012;-83
2020/12/05 05:49:33;;;;;;;25.75;14.02;;;2.40;97.80;;;;;;6165255;23;20002;-84
2020/12/05 05:52:04;;;;;;;28.10;15.50;;;2.50;97.90;;;;;;6137441;23;20025;-84
2020/12/05 05:54:37;;;;;;;26.55;15.45;;;2.50;98.00;;;;;;6164013;23;20005;-82
2020/12/05 05:57:07;;;;;;;26.05;14.88;;;2.50;98.10;;;;;;6144706;23;20088;-80
2020/12/05 05:59:49;;;;;;;23.83;14.02;;;2.40;98.00;;;;;;6149844;23;20010;-83
2020/12/05 06:02:15;;;;;;;29.17;17.00;;;2.40;98.10;;;;;;6137143;23;20013;-82
2020/12/05 06:04:46;;;;;;;29.58;16.13;;;2.40;98.30;;;;;;6134506;23;20006;-84
2020/12/05 06:07:25;;;;;;;24.83;15.52;;;2.50;98.30;;;;;;6135663;23;20002;-84
2020/12/05 06:09:55;;;;;;;25.15;14.52;;;2.50;98.20;;;;;;6161865;23;20006;-84
2020/12/05 06:12:26;;;;;;;26.40;15.27;;;2.50;98.20;;;;;;6135067;23;20393;-84
2020/12/05 06:14:54;;;;;;;28.98;16.73;;;2.60;98.30;;;;;;6135532;23;20064;-85
2020/12/05 06:17:29;;;;;;;30.38;18.80;;;2.60;98.20;;;;;;6161514;23;20010;-85
2020/12/05 06:19:57;;;;;;;26.60;15.40;;;2.60;98.30;;;;;;6134911;23;20326;-84
2020/12/05 06:22:29;;;;;;;29.17;15.98;;;2.60;98.20;;;;;;6135035;23;20005;-85
2020/12/05 06:24:58;;;;;;;26.67;14.80;;;2.60;98.10;;;;;;6159476;23;20008;-83
2020/12/05 06:27:25;;;;;;;29.52;17.20;;;2.60;98.00;;;;;;6159150;23;20004;-84
2020/12/05 06:29:52;;;;;;;24.63;13.98;;;2.70;98.00;;;;;;6134072;23;20117;-84
2020/12/05 06:32:50;;;;;;;20.83;12.90;;;2.70;98.00;;;;;;6159012;23;19994;-84
2020/12/05 06:35:19;;;;;;;25.13;14.80;;;2.70;97.90;;;;;;6136047;23;20124;-84
2020/12/05 06:37:46;;;;;;;27.13;16.00;;;2.70;97.80;;;;;;6134252;23;20426;-84
2020/12/05 06:40:12;;;;;;;25.23;14.32;;;2.70;97.80;;;;;;6159334;23;20006;-85
2020/12/05 06:42:39;;;;;;;19.75;11.90;;;2.70;97.80;;;;;;6176132;23;20065;-81
2020/12/05 06:45:05;;;;;;;22.10;13.73;;;2.70;97.90;;;;;;6156874;23;20033;-82
2020/12/05 06:47:32;;;;;;;28.95;16.70;;;2.80;97.90;;;;;;6149596;23;20010;-85
2020/12/05 06:50:01;;;;;;;29.88;17.90;;;2.80;97.90;;;;;;6165422;23;20136;-85
2020/12/05 06:52:27;;;;;;;22.50;14.43;;;2.70;97.70;;;;;;6108469;23;20017;-85
2020/12/05 06:54:59;;;;;;;20.40;12.52;;;2.80;98.00;;;;;;6156828;23;20005;-84
2020/12/05 06:57:29;;;;;;;19.65;11.63;;;2.80;98.30;;;;;;6158539;23;20387;-84
2020/12/05 07:00:21;;;;;;;20.73;12.30;;;2.80;98.00;;;;;;6131342;23;20092;-85
2020/12/05 07:02:58;;;;;;;21.35;12.52;;;2.80;98.00;;;;;;6157795;23;20396;-86
2020/12/05 07:05:26;;;;;;;27.80;16.55;;;2.90;97.90;;;;;;6156218;23;20081;-85
2020/12/05 07:08:00;;;;;;;31.00;17.30;;;3.00;97.60;;;;;;6158892;23;20004;-84
2020/12/05 07:10:59;;;;;;;28.00;16.75;;;3.00;97.60;;;;;;6159579;23;19998;-85
2020/12/05 07:13:26;;;;;;;30.73;17.38;;;3.00;97.50;;;;;;6133795;23;20421;-84
2020/12/05 07:16:23;;;;;;;27.02;15.25;;;3.00;97.40;;;;;;6159530;23;20012;-84
2020/12/05 07:18:52;;;;;;;23.80;14.75;;;3.10;97.20;;;;;;6161380;23;20052;-84
2020/12/05 07:21:18;;;;;;;29.73;15.77;;;3.10;97.20;;;;;;6132827;23;20060;-85
2020/12/05 07:23:44;;;;;;;27.63;16.10;;;3.10;97.20;;;;;;6160402;23;20009;-82
2020/12/05 07:26:11;;;;;;;22.58;14.48;;;3.10;97.00;;;;;;6133984;23;20084;-85
2020/12/05 07:28:37;;;;;;;24.85;14.85;;;3.10;97.20;;;;;;6159082;23;20433;-84
2020/12/05 07:31:04;;;;;;;25.45;14.43;;;3.10;97.20;;;;;;6134213;23;20009;-84
2020/12/05 07:33:30;;;;;;;19.75;12.15;;;3.10;97.30;;;;;;6158243;23;20013;-83
2020/12/05 07:36:04;;;;;;;21.50;13.10;;;3.10;97.40;;;;;;6133927;23;20114;-86
2020/12/05 07:38:31;;;;;;;24.00;15.07;;;3.10;97.40;;;;;;6133935;23;20009;-85
2020/12/05 07:40:59;;;;;;;24.92;14.68;;;3.10;97.30;;;;;;6134882;23;20014;-85
2020/12/05 07:43:25;;;;;;;26.65;15.20;;;3.10;97.20;;;;;;6133582;23;20024;-84
2020/12/05 07:45:52;;;;;;;23.70;14.30;;;3.20;97.10;;;;;;6136508;23;19997;-84
2020/12/05 07:48:20;;;;;;;21.88;13.85;;;3.20;97.00;;;;;;6160739;23;20001;-84
2020/12/05 07:50:47;;;;;;;21.65;13.90;;;3.20;97.10;;;;;;6162937;23;20001;-83
2020/12/05 07:53:28;;;;;;;22.45;13.18;;;3.20;97.10;;;;;;6171692;23;20006;-86
2020/12/05 07:55:54;;;;;;;24.23;14.20;;;3.20;97.00;;;;;;6138768;23;20616;-85
2020/12/05 07:58:21;;;;;;;22.70;13.68;;;3.20;97.00;;;;;;6169522;23;20081;-81
2020/12/05 08:00:46;;;;;;;22.92;13.38;;;3.20;96.90;;;;;;6173602;23;20036;-85
2020/12/05 08:03:36;;;;;;;23.13;14.43;;;3.20;97.00;;;;;;6163690;23;20002;-84
2020/12/05 08:06:13;;;;;;;27.75;14.70;;;3.20;97.00;;;;;;6137969;23;20001;-83
2020/12/05 08:08:46;;;;;;;20.70;13.02;;;3.20;97.00;;;;;;6135092;23;20159;-85
2020/12/05 08:11:12;;;;;;;24.80;14.00;;;3.20;97.20;;;;;;6137028;23;20002;-85
2020/12/05 08:13:38;;;;;;;23.30;12.63;;;3.20;97.30;;;;;;6138635;23;20044;-85
2020/12/05 08:16:08;;;;;;;24.20;14.20;;;3.30;97.30;;;;;;6151049;23;20008;-80
2020/12/05 08:18:35;;;;;;;20.15;13.05;;;3.40;96.80;;;;;;6179089;23;20010;-85
2020/12/05 08:21:03;;;;;;;21.10;13.63;;;3.40;96.40;;;;;;6162705;23;20001;-84
2020/12/05 08:23:34;;;;;;;20.85;13.52;;;3.50;96.10;;;;;;6136350;23;20002;-85
2020/12/05 08:26:03;;;;;;;19.70;12.40;;;3.40;96.30;;;;;;6145370;23;20022;-78
2020/12/05 08:28:31;;;;;;;22.92;13.00;;;3.50;96.50;;;;;;6182289;23;19994;-80
2020/12/05 08:31:06;;;;;;;19.42;12.50;;;3.50;96.20;;;;;;6169257;23;20441;-84
2020/12/05 08:33:49;;;;;;;18.48;11.50;;;3.50;96.00;;;;;;6134157;23;20029;-84
2020/12/05 08:36:26;;;;;;;18.58;12.18;;;3.50;96.00;;;;;;6135069;23;20005;-84
2020/12/05 08:39:01;;;;;;;21.63;11.93;;;3.50;95.90;;;;;;6161460;23;20013;-82
2020/12/05 08:41:27;;;;;;;17.98;10.43;;;3.50;96.00;;;;;;6137788;23;20038;-86
2020/12/05 08:43:53;;;;;;;17.33;10.80;;;3.50;96.20;;;;;;6135624;23;20009;-85
2020/12/05 08:46:22;;;;;;;14.40;9.65;;;3.50;96.30;;;;;;6136349;23;20350;-82
2020/12/05 08:48:50;;;;;;;13.93;8.43;;;3.60;96.30;;;;;;6159299;23;20430;-84
2020/12/05 08:51:17;;;;;;;10.50;7.53;;;3.70;96.30;;;;;;6136522;23;20019;-85
2020/12/05 08:53:43;;;;;;;12.52;8.15;;;3.70;96.10;;;;;;6136192;23;20060;-84
2020/12/05 08:56:20;;;;;;;12.77;8.35;;;3.80;96.00;;;;;;6136590;23;20012;-84
2020/12/05 08:58:46;;;;;;;12.05;7.68;;;3.80;95.80;;;;;;6134949;23;20015;-86
2020/12/05 09:01:13;;;;;;;10.00;6.85;;;3.90;95.70;;;;;;6134970;23;20005;-85
2020/12/05 09:03:40;;;;;;;14.85;8.57;;;3.90;95.60;;;;;;6161186;23;20006;-84
2020/12/05 09:06:06;;;;;;;13.95;9.88;;;4.00;95.20;;;;;;6135656;23;20002;-85
2020/12/05 09:08:32;;;;;;;13.82;9.50;;;4.00;95.10;;;;;;6161806;23;20021;-85
2020/12/05 09:11:01;;;;;;;13.68;8.82;;;4.00;94.90;;;;;;6136488;23;20005;-86
2020/12/05 09:13:42;;;;;;;11.95;7.82;;;4.00;95.00;;;;;;6134653;23;20009;-85
2020/12/05 09:16:08;;;;;;;11.75;7.55;;;4.10;95.10;;;;;;6136202;23;20009;-84
2020/12/05 09:18:48;;;;;;;12.45;8.15;;;4.10;94.80;;;;;;6163116;23;19998;-84
2020/12/05 09:21:16;;;;;;;13.50;8.45;;;4.10;94.70;;;;;;6137149;23;20010;-84
2020/12/05 09:23:42;;;;;;;12.23;7.30;;;4.10;94.70;;;;;;6138670;23;20023;-84
2020/12/05 09:26:09;;;;;;;10.75;7.30;;;4.20;94.80;;;;;;6137160;23;20279;-87
2020/12/05 09:28:42;;;;;;;13.15;7.97;;;4.20;94.60;;;;;;6138097;23;20012;-83
2020/12/05 09:31:08;;;;;;;11.00;7.68;;;4.20;94.20;;;;;;6139518;23;20313;-85
2020/12/05 09:33:34;;;;;;;10.40;7.15;;;4.20;94.40;;;;;;6143034;23;20009;-83
2020/12/05 09:36:00;;;;;;;11.95;8.55;;;4.20;94.20;;;;;;6145639;23;20009;-83
2020/12/05 09:38:26;;;;;;;8.38;6.30;;;4.30;94.10;;;;;;6147365;23;20000;-84
2020/12/05 09:40:52;;;;;;;8.73;5.85;;;4.30;94.30;;;;;;6168123;23;20033;-84
2020/12/05 09:43:18;;;;;;;8.80;5.93;;;4.40;94.10;;;;;;6138026;23;20017;-84
2020/12/05 09:45:44;;;;;;;9.50;6.00;;;4.40;93.90;;;;;;6140226;23;20381;-86
2020/12/05 09:48:10;;;;;;;7.18;4.88;;;4.40;93.80;;;;;;6163924;23;20017;-85
2020/12/05 09:50:40;;;;;;;12.32;6.97;;;4.50;93.80;;;;;;6137210;23;20341;-84
2020/12/05 09:53:06;;;;;;;7.03;5.40;;;4.50;93.30;;;;;;6138261;23;20005;-82
2020/12/05 09:55:31;;;;;;;8.65;6.60;;;4.50;93.60;;;;;;6161501;23;20502;-85
2020/12/05 09:58:03;;;;;;;16.95;9.18;;;4.40;93.40;;;;;;6174572;23;19989;-82
2020/12/05 10:00:29;;;;;;;9.95;7.00;;;4.30;93.40;;;;;;6173998;23;20015;-86
2020/12/05 10:02:55;;;;;;;11.38;7.30;;;4.30;93.80;;;;;;6143817;23;20080;-85
2020/12/05 10:05:20;;;;;;;9.50;7.00;;;4.20;94.00;;;;;;6167678;23;19990;-84
2020/12/05 10:07:57;;;;;;;8.52;6.03;;;4.30;94.30;;;;;;6136870;23;20101;-83
2020/12/05 10:10:37;;;;;;;7.53;5.18;;;4.30;94.40;;;;;;6158595;23;20485;-84
2020/12/05 10:13:03;;;;;;;10.23;6.90;;;4.30;94.20;;;;;;6134289;23;20016;-84
2020/12/05 10:15:29;;;;;;;8.90;6.22;;;4.30;94.00;;;;;;6133144;23;20005;-84
2020/12/05 10:18:10;;;;;;;13.98;8.82;;;4.30;94.10;;;;;;6132492;23;20028;-85
2020/12/05 10:20:36;;;;;;;20.58;11.23;;;4.30;93.90;;;;;;6140714;23;20007;-83
2020/12/05 10:23:02;;;;;;;25.25;14.05;;;4.30;94.00;;;;;;6165176;23;20001;-84
2020/12/05 10:25:27;;;;;;;18.42;11.80;;;4.20;94.00;;;;;;6159331;23;20327;-85
2020/12/05 10:27:53;;;;;;;21.95;12.88;;;4.20;94.30;;;;;;6161870;23;19997;-84
2020/12/05 10:30:19;;;;;;;20.40;13.05;;;4.10;94.10;;;;;;6159621;23;20016;-85
2020/12/05 10:32:44;;;;;;;14.93;10.82;;;4.10;94.30;;;;;;6157941;23;20024;-86
2020/12/05 10:35:10;;;;;;;22.52;10.93;;;4.10;94.50;;;;;;6159034;23;20470;-84
2020/12/05 10:37:36;;;;;;;26.88;17.98;;;4.10;94.60;;;;;;6157726;23;20021;-84
2020/12/05 10:40:02;;;;;;;28.98;16.63;;;4.10;94.60;;;;;;6161452;23;20040;-83
2020/12/05 10:42:27;;;;;;;30.63;17.02;;;4.10;95.00;;;;;;6132039;23;20012;-84
2020/12/05 10:44:53;;;;;;;23.05;13.93;;;4.10;94.80;;;;;;6135145;23;20033;-85
2020/12/05 10:47:19;;;;;;;21.08;12.70;;;4.10;95.00;;;;;;6168703;23;20022;-83
2020/12/05 10:49:45;;;;;;;26.95;16.88;;;4.20;95.30;;;;;;6166015;23;20481;-86
2020/12/05 10:52:11;;;;;;;27.13;16.52;;;4.10;94.90;;;;;;6134327;23;20441;-86
2020/12/05 10:54:37;;;;;;;27.92;16.52;;;4.10;95.00;;;;;;6159379;23;20448;-85
2020/12/05 10:57:02;;;;;;;26.38;15.52;;;4.10;95.20;;;;;;6135506;23;20033;-86
2020/12/05 10:59:28;;;;;;;22.50;12.93;;;4.00;95.50;;;;;;6134631;23;20264;-85
2020/12/05 11:01:55;;;;;;;24.70;15.95;;;4.10;95.80;;;;;;6136070;23;20069;-82
2020/12/05 11:04:20;;;;;;;25.70;15.70;;;4.10;95.70;;;;;;6147074;23;20324;-84
2020/12/05 11:06:46;;;;;;;25.38;15.75;;;4.10;95.70;;;;;;6148365;23;20002;-82
2020/12/05 11:09:12;;;;;;;25.13;14.63;;;4.10;95.90;;;;;;6152433;23;20584;-85
2020/12/05 11:11:38;;;;;;;28.67;16.73;;;4.20;95.90;;;;;;6146880;23;20097;-84
2020/12/05 11:14:04;;;;;;;22.92;13.77;;;4.10;96.00;;;;;;6140471;23;20006;-85
2020/12/05 11:16:42;;;;;;;22.38;12.13;;;4.10;96.10;;;;;;6165187;23;20326;-86
2020/12/05 11:19:08;;;;;;;23.08;12.75;;;4.00;96.20;;;;;;6137915;23;20001;-85
2020/12/05 11:21:33;;;;;;;22.30;14.45;;;4.00;96.50;;;;;;6138275;23;20105;-84
2020/12/05 11:24:16;;;;;;;17.65;11.07;;;4.00;96.70;;;;;;6139503;23;20014;-86
2020/12/05 11:26:51;;;;;;;21.25;14.55;;;3.90;96.90;;;;;;6137953;23;20017;-82
2020/12/05 11:29:17;;;;;;;21.60;13.15;;;3.90;97.20;;;;;;6153923;23;20032;-82
2020/12/05 11:31:43;;;;;;;21.88;14.25;;;3.90;97.40;;;;;;6139380;23;20029;-82
2020/12/05 11:34:09;;;;;;;26.23;15.43;;;3.80;97.50;;;;;;6163840;23;20370;-82
2020/12/05 11:36:34;;;;;;;21.67;13.43;;;3.80;97.80;;;;;;6139256;23;20009;-81
2020/12/05 11:39:01;;;;;;;21.02;12.00;;;3.80;98.00;;;;;;6139374;23;20014;-81
2020/12/05 11:41:26;;;;;;;21.75;14.15;;;3.80;98.10;;;;;;6163317;23;20357;-81
2020/12/05 11:43:52;;;;;;;18.33;11.40;;;3.80;98.20;;;;;;6161981;23;20033;-82
2020/12/05 11:46:17;;;;;;;28.15;16.52;;;3.80;98.20;;;;;;6179145;23;20002;-82
2020/12/05 11:48:43;;;;;;;21.88;13.27;;;3.80;98.00;;;;;;6180884;23;20009;-82
2020/12/05 11:51:11;;;;;;;22.33;12.95;;;3.80;98.20;;;;;;6165002;23;20006;-82
2020/12/05 11:53:37;;;;;;;22.20;12.77;;;3.80;98.30;;;;;;6160411;23;20002;-82
2020/12/05 11:56:04;;;;;;;40.10;18.98;;;3.80;98.30;;;;;;6164952;23;19997;-82
2020/12/05 11:58:29;;;;;;;32.58;18.63;;;3.80;98.30;;;;;;6147035;23;20052;-82
2020/12/05 12:01:00;;;;;;;29.98;18.45;;;3.70;98.60;;;;;;6161912;23;20005;-82
2020/12/05 12:03:26;;;;;;;33.30;19.13;;;3.80;99.90;;;;;;6160047;23;20028;-81
2020/12/05 12:05:52;;;;;;;30.63;16.30;;;3.90;99.90;;;;;;6133522;23;20012;-82
2020/12/05 12:08:22;;;;;;;24.85;16.08;;;4.00;99.90;;;;;;6158536;23;20334;-82
2020/12/05 12:10:50;;;;;;;27.25;16.58;;;4.00;99.50;;;;;;6134645;23;20438;-82
2020/12/05 12:13:25;;;;;;;25.95;15.55;;;4.00;99.40;;;;;;6146259;23;20047;-82
2020/12/05 12:15:57;;;;;;;21.30;12.02;;;4.00;99.30;;;;;;6172955;23;20005;-83
2020/12/05 12:18:23;;;;;;;16.73;10.52;;;3.90;99.40;;;;;;6164445;23;20016;-82
2020/12/05 12:20:49;;;;;;;20.52;11.75;;;4.00;99.50;;;;;;6161966;23;20006;-82
2020/12/05 12:23:14;;;;;;;20.45;12.23;;;3.90;99.40;;;;;;6135769;23;20005;-82
2020/12/05 12:25:40;;;;;;;18.92;11.38;;;3.90;99.20;;;;;;6162830;23;19997;-82
2020/12/05 12:28:05;;;;;;;19.45;11.82;;;3.90;99.40;;;;;;6145428;23;20008;-82
2020/12/05 12:30:31;;;;;;;26.42;15.63;;;3.80;99.50;;;;;;6175471;23;20065;-81
2020/12/05 12:33:00;;;;;;;22.92;13.73;;;3.90;99.80;;;;;;6178625;23;20106;-82
2020/12/05 12:35:27;;;;;;;16.75;11.23;;;3.90;99.90;;;;;;6152432;23;20045;-82
2020/12/05 12:37:53;;;;;;;15.65;10.18;;;3.90;99.90;;;;;;6151588;23;20017;-82
2020/12/05 12:40:19;;;;;;;24.20;14.48;;;3.90;99.90;;;;;;6147961;23;20396;-83
2020/12/05 12:42:44;;;;;;;33.38;19.23;;;3.90;99.90;;;;;;6149885;23;20060;-84
2020/12/05 12:45:10;;;;;;;27.05;15.70;;;3.90;99.90;;;;;;6176056;23;20076;-82
2020/12/05 12:47:43;;;;;;;25.90;16.70;;;3.80;99.90;;;;;;6173677;23;20049;-82
2020/12/05 12:50:09;;;;;;;22.45;14.13;;;3.80;99.90;;;;;;6174319;23;20005;-82
2020/12/05 12:52:35;;;;;;;22.77;13.40;;;3.80;99.90;;;;;;6170533;23;20033;-81
2020/12/05 12:55:01;;;;;;;20.85;11.57;;;3.80;99.90;;;;;;6170358;23;20410;-84
2020/12/05 12:57:31;;;;;;;19.55;10.95;;;3.80;99.90;;;;;;6164978;23;20072;-84
2020/12/05 12:59:56;;;;;;;17.08;10.52;;;3.90;99.90;;;;;;6162949;23;20085;-82
2020/12/05 13:02:22;;;;;;;25.45;14.55;;;3.90;99.90;;;;;;6136344;23;20017;-81
2020/12/05 13:04:48;;;;;;;21.92;13.10;;;3.80;99.90;;;;;;6162605;23;20001;-81
2020/12/05 13:07:13;;;;;;;22.05;14.20;;;3.80;99.90;;;;;;6136460;23;20020;-83
2020/12/05 13:09:39;;;;;;;24.95;14.75;;;3.80;99.90;;;;;;6163298;23;20384;-82
2020/12/05 13:12:05;;;;;;;28.25;16.13;;;3.80;99.90;;;;;;6136670;23;20002;-84
2020/12/05 13:14:30;;;;;;;25.05;16.15;;;3.80;99.90;;;;;;6161604;23;20345;-81
2020/12/05 13:16:57;;;;;;;26.92;16.58;;;3.80;99.90;;;;;;6161127;23;20033;-82
2020/12/05 13:19:22;;;;;;;23.20;13.52;;;3.80;99.90;;;;;;6134797;23;20028;-81
2020/12/05 13:21:48;;;;;;;20.13;13.63;;;3.70;99.90;;;;;;6134568;23;20005;-80
2020/12/05 13:24:14;;;;;;;21.13;11.93;;;3.70;99.90;;;;;;6135657;23;20080;-81
2020/12/05 13:26:39;;;;;;;21.30;14.32;;;3.80;99.90;;;;;;6134267;23;20017;-81
2020/12/05 13:29:05;;;;;;;21.40;12.15;;;3.80;99.90;;;;;;6162645;23;20005;-81
2020/12/05 13:31:33;;;;;;;25.55;15.00;;;3.70;99.90;;;;;;6161582;23;20108;-81
2020/12/05 13:34:02;;;;;;;23.38;13.88;;;3.70;99.90;;;;;;6135906;23;20291;-81
2020/12/05 13:36:28;;;;;;;19.65;11.30;;;3.70;99.90;;;;;;6134069;23;20005;-81
2020/12/05 13:38:54;;;;;;;17.58;10.10;;;3.70;99.90;;;;;;6134322;23;20078;-81
2020/12/05 13:41:20;;;;;;;20.55;12.35;;;3.70;99.90;;;;;;6133915;23;20005;-82
2020/12/05 13:43:45;;;;;;;24.67;15.02;;;3.70;99.90;;;;;;6161097;23;20044;-81
2020/12/05 13:46:13;;;;;;;22.70;12.52;;;3.70;99.90;;;;;;6160523;23;20021;-81
2020/12/05 13:48:40;;;;;;;26.65;14.52;;;3.70;99.90;;;;;;6135140;23;20006;-81
2020/12/05 13:51:05;;;;;;;25.85;13.77;;;3.70;99.90;;;;;;6136422;23;20011;-81
2020/12/05 13:53:31;;;;;;;24.10;13.48;;;3.70;99.90;;;;;;6135226;23;20033;-81
2020/12/05 13:56:01;;;;;;;23.15;13.10;;;3.70;99.90;;;;;;6164003;23;20013;-82
2020/12/05 13:58:27;;;;;;;19.77;12.55;;;3.70;99.90;;;;;;6140409;23;20016;-81
2020/12/05 14:00:53;;;;;;;27.55;14.48;;;3.70;99.90;;;;;;6172013;23;20002;-81
2020/12/05 14:03:19;;;;;;;25.55;15.13;;;3.70;99.90;;;;;;6178155;23;20004;-81
2020/12/05 14:05:47;;;;;;;25.23;14.90;;;3.70;99.90;;;;;;6162078;23;20033;-81
2020/12/05 14:08:12;;;;;;;21.38;13.38;;;3.70;99.90;;;;;;6162311;23;20006;-81
2020/12/05 14:10:38;;;;;;;21.10;12.35;;;3.70;99.90;;;;;;6161535;23;19998;-85
2020/12/05 14:13:04;;;;;;;19.83;11.73;;;3.70;99.90;;;;;;6139282;23;20112;-84
2020/12/05 14:15:30;;;;;;;18.23;11.48;;;3.70;99.90;;;;;;6141985;23;20005;-83
2020/12/05 14:17:55;;;;;;;19.48;12.75;;;3.70;99.90;;;;;;6141575;23;20381;-84
2020/12/05 14:20:21;;;;;;;28.60;17.63;;;3.70;99.90;;;;;;6143211;23;20009;-83
2020/12/05 14:22:49;;;;;;;24.35;14.95;;;3.70;99.90;;;;;;6140183;23;20001;-82
2020/12/05 14:25:15;;;;;;;26.27;13.80;;;3.60;99.90;;;;;;6167796;23;20025;-83
2020/12/05 14:27:45;;;;;;;24.35;13.77;;;3.70;99.90;;;;;;6167609;23;20006;-84
2020/12/05 14:30:11;;;;;;;25.40;14.15;;;3.60;99.90;;;;;;6142073;23;20010;-84
2020/12/05 14:32:38;;;;;;;23.25;14.90;;;3.70;99.90;;;;;;6142998;23;20075;-84
2020/12/05 14:35:03;;;;;;;22.13;12.93;;;3.70;99.90;;;;;;6141408;23;20006;-83
2020/12/05 14:37:29;;;;;;;18.42;11.38;;;3.70;99.90;;;;;;6140475;23;20318;-83
2020/12/05 14:40:04;;;;;;;20.65;12.63;;;3.70;99.90;;;;;;6166144;23;20077;-83
2020/12/05 14:42:31;;;;;;;20.77;13.20;;;3.80;99.90;;;;;;6140867;23;20017;-83
2020/12/05 14:44:57;;;;;;;23.00;12.65;;;3.80;99.90;;;;;;6139712;23;20345;-82
2020/12/05 14:47:23;;;;;;;18.75;11.30;;;3.80;99.90;;;;;;6138439;23;20009;-84
2020/12/05 14:49:50;;;;;;;20.02;9.77;;;3.80;99.90;;;;;;6163421;23;20002;-82
2020/12/05 14:52:16;;;;;;;15.35;9.27;;;3.80;99.90;;;;;;6160023;23;20085;-83
2020/12/05 14:54:48;;;;;;;13.80;9.07;;;3.80;99.90;;;;;;6141353;23;20389;-83
2020/12/05 14:57:21;;;;;;;14.02;8.73;;;3.80;99.90;;;;;;6141332;23;20033;-82
2020/12/05 15:00:11;;;;;;;14.48;8.68;;;3.80;99.90;;;;;;6117690;23;20100;-82
2020/12/05 15:02:50;;;;;;;14.35;8.07;;;3.90;99.90;;;;;;6169352;23;20005;-82
2020/12/05 15:05:17;;;;;;;11.00;6.78;;;3.90;99.90;;;;;;6145316;23;19990;-81
2020/12/05 15:07:54;;;;;;;15.00;8.82;;;3.90;99.90;;;;;;6132232;23;20053;-81
2020/12/05 15:10:43;;;;;;;19.05;11.52;;;3.90;99.90;;;;;;6175967;23;20005;-83
2020/12/05 15:13:12;;;;;;;15.00;8.98;;;3.90;99.90;;;;;;6167261;23;20077;-84
2020/12/05 15:15:39;;;;;;;14.55;9.25;;;3.80;99.90;;;;;;6138447;23;20204;-82
2020/12/05 15:18:08;;;;;;;27.83;17.00;;;3.80;99.90;;;;;;6140800;23;20006;-82
2020/12/05 15:20:51;;;;;;;28.80;16.75;;;3.70;99.90;;;;;;6169437;23;20002;-82
2020/12/05 15:23:18;;;;;;;22.73;13.85;;;3.70;99.90;;;;;;6168536;23;20012;-83
2020/12/05 15:25:44;;;;;;;24.17;14.50;;;3.70;99.90;;;;;;6144048;23;20002;-85
2020/12/05 15:28:10;;;;;;;20.15;11.80;;;3.70;99.90;;;;;;6142110;23;20001;-83
2020/12/05 15:30:44;;;;;;;21.23;12.05;;;3.70;99.90;;;;;;6140697;23;20014;-83
2020/12/05 15:33:13;;;;;;;20.33;12.43;;;3.70;99.90;;;;;;6142232;23;20005;-82
2020/12/05 15:35:40;;;;;;;23.90;12.95;;;3.70;99.90;;;;;;6140282;23;20006;-83
2020/12/05 15:38:06;;;;;;;25.00;13.57;;;3.60;99.90;;;;;;6140088;23;20282;-83
2020/12/05 15:40:32;;;;;;;19.70;11.50;;;3.60;99.90;;;;;;6169587;23;20028;-81
2020/12/05 15:42:57;;;;;;;19.52;10.05;;;3.60;99.90;;;;;;6152103;23;19998;-83
2020/12/05 15:45:26;;;;;;;17.88;9.85;;;3.60;99.90;;;;;;6149175;23;20002;-83
2020/12/05 15:47:51;;;;;;;16.30;9.77;;;3.60;99.90;;;;;;6143759;23;19998;-84
2020/12/05 15:50:19;;;;;;;27.30;16.55;;;3.60;99.90;;;;;;6167727;23;20065;-84
2020/12/05 15:52:46;;;;;;;35.97;19.58;;;3.60;99.90;;;;;;6140683;23;20005;-83
2020/12/05 15:55:12;;;;;;;25.25;15.70;;;3.50;99.90;;;;;;6136513;23;20013;-83
2020/12/05 15:57:42;;;;;;;20.15;12.43;;;3.50;99.90;;;;;;6136701;23;20056;-83
2020/12/05 16:00:08;;;;;;;21.60;12.35;;;3.50;99.90;;;;;;6138168;23;20021;-84
2020/12/05 16:02:35;;;;;;;17.88;11.35;;;3.50;99.90;;;;;;6136008;23;20006;-84
2020/12/05 16:05:04;;;;;;;22.83;14.80;;;3.50;99.90;;;;;;6136271;23;20087;-85
2020/12/05 16:07:30;;;;;;;27.00;16.08;;;3.40;99.90;;;;;;6135675;23;20327;-84
2020/12/05 16:09:56;;;;;;;27.23;14.60;;;3.40;99.90;;;;;;6136418;23;20089;-85
2020/12/05 16:12:22;;;;;;;26.50;14.60;;;3.30;99.90;;;;;;6163845;23;20504;-85
2020/12/05 16:14:52;;;;;;;27.25;14.32;;;3.30;99.90;;;;;;6135806;23;20009;-83
2020/12/05 16:17:18;;;;;;;23.15;13.90;;;3.30;99.90;;;;;;6135441;23;20002;-84
2020/12/05 16:19:53;;;;;;;24.90;14.23;;;3.20;99.90;;;;;;6112757;23;19994;-83
2020/12/05 16:22:27;;;;;;;24.92;14.02;;;3.10;99.90;;;;;;6140167;23;19998;-84
2020/12/05 16:24:58;;;;;;;21.35;12.88;;;3.10;99.90;;;;;;6113172;23;20043;-83
2020/12/05 16:27:29;;;;;;;32.47;17.20;;;3.00;99.90;;;;;;6139787;23;20002;-83
2020/12/05 16:29:58;;;;;;;24.77;15.38;;;3.00;99.90;;;;;;6137942;23;20112;-85
2020/12/05 16:32:28;;;;;;;31.48;17.98;;;2.90;99.90;;;;;;6137406;23;20049;-82
2020/12/05 16:35:04;;;;;;;23.23;13.80;;;2.80;99.90;;;;;;6140586;23;20052;-84
2020/12/05 16:37:32;;;;;;;27.25;15.23;;;2.80;99.90;;;;;;6141385;23;20033;-83
2020/12/05 16:40:04;;;;;;;26.98;15.50;;;2.80;99.90;;;;;;6170773;23;20016;-81
2020/12/05 16:42:35;;;;;;;22.45;13.10;;;2.70;99.90;;;;;;6150050;23;20016;-82
2020/12/05 16:45:04;;;;;;;26.70;14.23;;;2.70;99.90;;;;;;6175308;23;20036;-81
2020/12/05 16:47:33;;;;;;;19.30;12.48;;;2.70;99.90;;;;;;6176655;23;20039;-81
2020/12/05 16:49:59;;;;;;;20.63;11.85;;;2.70;99.90;;;;;;6168312;23;20016;-82
2020/12/05 16:52:25;;;;;;;22.63;13.88;;;2.70;99.90;;;;;;6177717;23;20441;-81
2020/12/05 16:54:52;;;;;;;22.10;12.70;;;2.70;99.90;;;;;;6152801;23;19994;-81
2020/12/05 16:57:23;;;;;;;22.42;13.38;;;2.70;99.90;;;;;;6127418;23;20017;-83
2020/12/05 16:59:49;;;;;;;19.40;12.50;;;2.70;99.90;;;;;;6142949;23;20093;-82
2020/12/05 17:02:14;;;;;;;21.40;12.15;;;2.70;99.90;;;;;;6135941;23;20005;-83
2020/12/05 17:04:41;;;;;;;28.50;16.95;;;2.60;99.90;;;;;;6135568;23;20084;-82
2020/12/05 17:07:06;;;;;;;32.00;19.95;;;2.60;99.90;;;;;;6135208;23;20001;-83
2020/12/05 17:09:32;;;;;;;26.83;16.17;;;2.50;99.90;;;;;;6135712;23;20009;-82
2020/12/05 17:11:58;;;;;;;29.58;19.02;;;2.50;99.90;;;;;;6162718;23;20032;-83
2020/12/05 17:14:25;;;;;;;29.23;16.73;;;2.40;99.90;;;;;;6133908;23;20029;-83
2020/12/05 17:16:51;;;;;;;22.27;13.95;;;2.30;99.90;;;;;;6110592;23;20594;-82
2020/12/05 17:19:17;;;;;;;23.45;13.85;;;2.30;99.90;;;;;;6133617;23;20009;-81
2020/12/05 17:21:43;;;;;;;21.10;13.80;;;2.30;99.90;;;;;;6134462;23;20430;-83
2020/12/05 17:24:09;;;;;;;22.88;12.02;;;2.30;99.90;;;;;;6133918;23;20010;-82
2020/12/05 17:26:35;;;;;;;21.48;13.13;;;2.20;99.90;;;;;;6132695;23;20088;-81
2020/12/05 17:29:02;;;;;;;21.67;12.15;;;2.20;99.90;;;;;;6133396;23;20100;-81
2020/12/05 17:31:28;;;;;;;24.08;14.68;;;2.20;99.90;;;;;;6130230;23;20020;-83
2020/12/05 17:33:58;;;;;;;24.95;14.10;;;2.20;99.90;;;;;;6130877;23;20513;-82
2020/12/05 17:36:24;;;;;;;31.00;17.30;;;2.20;99.90;;;;;;6131711;23;20334;-82
2020/12/05 17:38:50;;;;;;;29.50;16.80;;;2.10;99.90;;;;;;6134366;23;20034;-83
2020/12/05 17:41:22;;;;;;;23.55;14.55;;;2.10;99.90;;;;;;6134107;23;20009;-83
2020/12/05 17:43:48;;;;;;;45.70;17.53;;;2.10;99.90;;;;;;6134080;23;20344;-83
2020/12/05 17:46:14;;;;;;;21.25;12.55;;;2.00;99.90;;;;;;6108783;23;20341;-82
2020/12/05 17:48:41;;;;;;;19.80;11.85;;;2.10;99.90;;;;;;6161011;23;19998;-83
2020/12/05 17:51:06;;;;;;;19.52;12.20;;;2.10;99.90;;;;;;6135061;23;20018;-83
2020/12/05 17:53:32;;;;;;;18.35;11.57;;;2.10;99.90;;;;;;6135100;23;20014;-83
2020/12/05 17:55:58;;;;;;;18.45;10.77;;;2.10;99.90;;;;;;6135376;23;20043;-83
2020/12/05 17:58:24;;;;;;;21.90;13.35;;;2.10;99.90;;;;;;6137594;23;20005;-81
2020/12/05 18:00:49;;;;;;;23.95;14.13;;;2.10;99.90;;;;;;6136013;23;20092;-84
2020/12/05 18:03:15;;;;;;;20.02;12.10;;;2.10;99.90;;;;;;6137613;23;20637;-83
2020/12/05 18:05:41;;;;;;;20.40;11.35;;;2.00;99.90;;;;;;6137365;23;20028;-83
2020/12/05 18:08:07;;;;;;;19.17;11.55;;;2.10;99.90;;;;;;6138854;23;20001;-83
2020/12/05 18:10:33;;;;;;;45.78;27.05;;;2.10;99.90;;;;;;6164432;23;20002;-84
2020/12/05 18:12:59;;;;;;;42.47;24.40;;;2.10;99.90;;;;;;6137937;23;20464;-82
2020/12/05 18:15:26;;;;;;;36.63;22.33;;;2.10;99.90;;;;;;6139114;23;20076;-84